createdAt,value
2023-04-18T08:15:33.035Z,82.28
2023-04-18T08:16:07.847Z,82.79
2023-04-18T08:17:08.849Z,83.62
2023-04-18T08:18:08.961Z,83.51
2023-04-18T08:19:08.830Z,82.90
2023-04-18T08:20:08.268Z,82.48
2023-04-18T08:21:08.283Z,82.59
2023-04-18T09:15:01.466Z,78.02
2023-04-18T09:15:59.532Z,77.20
2023-04-18T09:17:00.531Z,76.27
2023-04-18T09:17:59.760Z,77.40
2023-04-18T09:18:59.480Z,78.12
2023-04-18T09:20:00.262Z,77.29
2023-04-18T09:21:03.117Z,76.48
2023-04-18T09:21:59.713Z,77.29
2023-04-18T09:23:01.323Z,76.99
2023-04-18T09:24:00.105Z,79.75
2023-04-18T09:25:00.409Z,76.99
2023-04-18T09:26:01.127Z,77.57
2023-04-18T09:27:02.871Z,76.78
2023-04-18T09:28:02.214Z,77.40
2023-04-18T09:29:00.655Z,77.61
2023-04-18T09:30:01.103Z,79.41
2023-04-18T09:31:03.243Z,77.87
2023-04-18T09:32:02.232Z,78.35
2023-04-18T09:33:03.502Z,79.17
2023-04-18T09:34:00.789Z,76.10
2023-04-18T09:35:03.957Z,77.12
2023-04-18T09:36:01.868Z,76.61
2023-04-18T09:37:02.035Z,78.11
2023-04-18T09:38:01.223Z,76.47
2023-04-18T09:39:02.095Z,76.88
2023-04-18T09:40:01.445Z,75.55
2023-04-18T09:41:03.224Z,76.37
2023-04-18T09:42:02.335Z,75.65
2023-04-18T09:43:01.664Z,75.55
2023-04-18T09:44:01.683Z,76.37
2023-04-18T09:45:02.571Z,76.06
2023-04-18T09:46:01.938Z,75.72
2023-04-18T09:47:01.925Z,76.43
2023-04-18T09:48:01.896Z,74.11
2023-04-18T09:49:02.944Z,75.45
2023-04-18T09:50:01.999Z,76.78
2023-04-18T09:51:02.148Z,75.10
2023-04-18T09:52:03.410Z,74.29
2023-04-18T09:53:04.060Z,75.31
2023-04-18T11:00:22.036Z,72.72
2023-04-18T11:01:21.738Z,72.21
2023-04-18T11:02:21.815Z,72.21
2023-04-18T11:03:21.894Z,73.19
2023-04-18T11:04:21.959Z,73.10
2023-04-18T11:05:22.015Z,72.65
2023-04-18T11:06:22.059Z,72.07
2023-04-18T11:07:22.155Z,73.88
2023-04-18T11:08:22.273Z,71.33
2023-04-18T11:09:22.340Z,72.04
2023-04-18T11:10:22.410Z,70.40
2023-04-18T11:11:23.501Z,73.27
2023-04-18T11:12:22.758Z,70.78
2023-04-18T11:13:22.708Z,71.84
2023-04-18T11:14:22.763Z,71.43
2023-04-18T11:15:22.855Z,72.65
2023-04-18T11:16:23.066Z,71.94
2023-04-18T11:17:23.161Z,72.04
2023-04-18T11:18:23.185Z,72.14
2023-04-18T11:19:23.418Z,71.94
2023-04-18T11:20:24.272Z,72.34
2023-04-18T11:21:23.308Z,71.63
2023-04-18T11:22:23.496Z,72.69
2023-04-18T11:23:24.477Z,72.34
2023-04-18T11:24:23.759Z,72.04
2023-04-18T11:25:24.613Z,72.89
2023-04-18T11:26:23.709Z,72.14
2023-04-18T11:27:23.760Z,71.84
2023-04-18T11:28:24.936Z,72.34
2023-04-18T11:29:23.978Z,72.65
2023-04-18T11:30:25.069Z,71.94
2023-04-18T11:31:25.549Z,71.94
2023-04-18T11:32:24.326Z,71.53
2023-04-18T11:33:24.424Z,70.00
2023-04-18T11:34:24.317Z,71.33
2023-04-18T11:35:24.457Z,71.73
2023-04-18T11:36:24.561Z,71.53
2023-04-18T11:37:24.649Z,72.65
2023-04-18T11:38:24.684Z,71.02
2023-04-18T11:39:25.775Z,71.84
2023-04-18T11:40:25.906Z,70.81
2023-04-18T11:41:25.969Z,71.22
2023-04-18T11:42:25.002Z,70.92
2023-04-18T11:43:25.118Z,72.55
2023-04-18T11:44:25.136Z,72.45
2023-04-18T11:45:25.207Z,71.33
2023-04-18T11:46:25.428Z,70.61
2023-04-18T11:47:25.497Z,71.53
2023-04-18T11:48:25.439Z,73.23
2023-04-18T11:49:25.571Z,72.52
2023-04-18T11:50:25.637Z,71.60
2023-04-18T11:51:25.752Z,72.21
2023-04-18T11:52:25.821Z,70.98
2023-04-18T11:53:26.883Z,70.57
2023-04-18T11:54:25.982Z,72.72
2023-04-18T11:55:26.052Z,72.31
2023-04-18T11:56:26.205Z,70.89
2023-04-18T11:57:26.256Z,71.09
2023-04-18T11:58:26.338Z,71.80
2023-04-18T11:59:26.369Z,70.89
2023-04-18T12:00:26.434Z,71.80
2023-04-18T12:01:26.548Z,71.60
2023-04-18T12:02:26.749Z,72.72
2023-04-18T12:03:26.814Z,71.91
2023-04-18T12:04:27.039Z,72.08
2023-04-18T12:05:27.069Z,73.50
2023-04-18T12:06:27.022Z,71.87
2023-04-18T12:07:27.006Z,71.36
2023-04-18T12:08:27.115Z,72.38
2023-04-18T12:09:27.226Z,71.06
2023-04-18T12:10:27.346Z,70.75
2023-04-18T12:11:27.338Z,71.06
2023-04-18T12:12:27.427Z,70.75
2023-04-18T12:13:27.587Z,71.97
2023-04-18T12:14:27.601Z,72.11
2023-04-18T12:15:27.674Z,72.21
2023-04-18T12:16:27.911Z,71.67
2023-04-18T12:17:27.832Z,71.26
2023-04-18T12:18:27.924Z,71.56
2023-04-18T12:19:27.984Z,71.33
2023-04-18T12:20:28.102Z,72.55
2023-04-18T12:21:28.128Z,70.10
2023-04-18T12:22:28.224Z,72.45
2023-04-18T12:23:28.288Z,71.12
2023-04-18T12:24:28.488Z,71.53
2023-04-18T12:25:28.462Z,70.92
2023-04-18T12:26:28.525Z,71.30
2023-04-18T12:27:28.603Z,70.78
2023-04-18T12:28:28.845Z,70.68
2023-04-18T12:29:28.821Z,71.09
2023-04-18T12:30:28.910Z,71.19
2023-04-18T12:31:29.030Z,70.51
2023-04-18T12:32:29.096Z,71.12
2023-04-18T12:33:29.242Z,71.63
2023-04-18T12:34:29.203Z,71.73
2023-04-18T12:35:29.304Z,72.55
2023-04-18T12:36:29.385Z,71.23
2023-04-18T12:37:29.436Z,71.73
2023-04-18T12:38:29.552Z,70.92
2023-04-18T12:39:29.622Z,71.12
2023-04-18T12:40:29.761Z,71.94
2023-04-18T12:41:29.863Z,72.31
2023-04-18T12:42:29.865Z,71.39
2023-04-18T12:43:29.949Z,71.50
2023-04-18T12:44:30.020Z,71.19
2023-04-18T12:45:30.116Z,70.78
2023-04-18T12:46:30.276Z,70.58
2023-04-18T12:47:30.347Z,72.21
2023-04-18T12:48:30.395Z,72.01
2023-04-18T12:49:30.485Z,72.72
2023-04-18T12:50:30.593Z,70.38
2023-04-18T13:36:14.157Z,69.19
2023-04-18T13:37:14.225Z,70.41
2023-04-18T13:38:14.286Z,68.88
2023-04-18T13:39:14.652Z,69.19
2023-04-18T13:40:14.472Z,69.93
2023-04-18T13:41:14.522Z,69.70
2023-04-18T13:42:16.175Z,70.10
2023-04-18T13:43:14.698Z,69.40
2023-04-18T13:44:14.789Z,69.09
2023-04-18T13:45:14.829Z,70.01
2023-04-18T13:46:14.953Z,69.09
2023-04-18T13:47:15.017Z,69.09
2023-04-18T13:48:16.348Z,68.88
2023-04-18T13:49:15.453Z,68.99
2023-04-18T13:50:15.278Z,69.09
2023-04-18T13:51:15.369Z,70.21
2023-04-18T13:52:15.427Z,69.09
2023-04-18T13:53:15.503Z,67.66
2023-04-18T13:54:15.646Z,68.99
2023-04-18T13:55:15.705Z,68.18
2023-04-18T13:56:15.774Z,69.06
2023-04-18T13:57:15.885Z,69.87
2023-04-18T13:58:15.910Z,69.97
2023-04-18T13:59:16.179Z,69.26
2023-04-18T14:00:16.058Z,69.26
2023-04-18T14:01:16.165Z,67.53
2023-04-18T14:02:16.376Z,69.06
2023-04-18T14:03:16.453Z,67.22
2023-04-18T14:04:16.575Z,67.13
2023-04-18T14:05:16.460Z,67.22
2023-04-18T14:06:16.551Z,67.33
2023-04-18T14:07:16.662Z,67.63
2023-04-18T14:08:16.764Z,68.44
2023-04-18T14:25:13.654Z,67.66
2023-04-18T14:26:13.707Z,66.96
2023-04-18T14:27:13.804Z,67.97
2023-04-18T14:28:14.072Z,68.24
2023-04-18T14:29:14.235Z,67.66
2023-04-18T14:30:14.154Z,67.13
2023-04-18T14:31:14.385Z,67.22
2023-04-18T14:32:14.262Z,68.85
2023-04-18T14:33:14.309Z,67.46
2023-04-18T14:34:14.435Z,67.16
2023-04-18T14:35:14.468Z,66.96
2023-04-18T14:36:14.584Z,67.87
2023-04-18T14:37:15.787Z,67.36
2023-04-18T14:38:14.733Z,67.46
2023-04-18T14:39:14.910Z,67.66
2023-04-18T14:40:14.849Z,67.36
2023-04-18T14:41:15.905Z,67.26
2023-04-18T14:42:14.968Z,67.36
2023-04-18T14:43:15.128Z,66.75
2023-04-18T14:44:15.132Z,67.46
2023-04-18T14:45:15.255Z,67.77
2023-04-18T14:46:15.319Z,67.57
2023-04-18T14:47:15.389Z,67.87
2023-04-18T14:48:15.575Z,66.96
2023-04-18T14:49:15.802Z,67.26
2023-04-18T14:50:15.672Z,66.85
2023-04-18T14:51:15.709Z,67.97
2023-04-18T14:52:15.815Z,66.96
2023-04-18T14:53:15.872Z,66.75
2023-04-18T14:54:15.984Z,66.96
2023-04-18T14:55:16.025Z,68.07
2023-04-18T14:56:16.107Z,68.18
2023-04-18T14:57:16.176Z,68.48
2023-04-18T14:58:17.253Z,67.77
2023-04-18T14:59:16.852Z,67.46
2023-04-18T15:00:16.419Z,67.26
2023-04-18T15:01:16.492Z,68.58
2023-04-18T15:02:16.671Z,68.18
2023-04-18T15:03:16.855Z,67.66
2023-04-18T15:04:17.118Z,67.16
2023-04-18T15:05:16.932Z,66.55
2023-04-18T15:06:16.922Z,67.46
2023-04-18T15:07:16.982Z,66.92
2023-04-18T15:08:17.094Z,68.24
2023-04-18T15:09:17.199Z,67.46
2023-04-18T15:10:17.243Z,67.57
2023-04-18T15:11:17.323Z,67.05
2023-04-18T15:12:17.433Z,66.14
2023-04-18T15:13:17.528Z,67.26
2023-04-18T15:14:17.666Z,67.13
2023-04-18T15:15:17.708Z,67.63
2023-04-18T15:16:17.816Z,66.55
2023-04-18T15:17:17.810Z,67.02
2023-04-18T15:18:18.675Z,66.96
2023-04-18T17:13:36.573Z,64.32
2023-04-18T17:16:54.420Z,64.32
2023-04-18T18:36:32.248Z,69.10
2023-04-18T18:51:59.981Z,69.44
2023-04-18T18:53:00.245Z,69.24
2023-04-18T18:54:00.183Z,69.24
2023-04-18T18:55:00.200Z,69.44
2023-04-18T18:56:00.271Z,69.13
2023-04-18T18:57:00.528Z,68.83
2023-04-18T18:58:00.407Z,68.93
2023-04-18T18:59:01.519Z,69.06
2023-04-18T19:00:00.595Z,69.27
2023-04-18T19:01:01.009Z,69.27
2023-04-18T19:02:01.913Z,69.06
2023-04-18T19:03:00.963Z,69.47
2023-04-18T19:04:01.089Z,69.37
2023-04-18T19:05:01.124Z,69.68
2023-04-18T19:06:01.091Z,69.47
2023-04-18T19:07:01.197Z,69.47
2023-04-18T19:08:01.316Z,69.10
2023-04-18T19:09:01.381Z,69.61
2023-04-18T19:10:01.567Z,69.27
2023-04-18T19:11:01.532Z,69.51
2023-04-18T19:12:01.629Z,70.12
2023-04-18T19:13:01.740Z,70.02
2023-04-18T19:14:01.856Z,70.53
2023-04-18T19:15:02.955Z,69.61
2023-04-18T19:16:03.012Z,69.51
2023-04-18T19:17:02.051Z,69.54
2023-04-18T19:18:02.198Z,69.61
2023-04-18T19:19:02.258Z,69.33
2023-04-18T19:20:02.338Z,68.10
2023-04-18T19:21:02.360Z,67.69
2023-04-18T19:22:03.472Z,67.28
2023-04-18T19:23:02.506Z,67.18
2023-04-18T19:24:02.654Z,68.30
2023-04-18T19:25:02.713Z,68.51
2023-04-18T19:26:02.725Z,68.30
2023-04-18T19:27:02.809Z,68.82
2023-04-18T19:28:02.944Z,69.02
2023-04-18T19:29:03.006Z,68.54
2023-04-18T19:30:03.118Z,68.54
2023-04-18T19:31:03.179Z,68.96
2023-04-18T19:32:04.342Z,69.06
2023-04-18T19:33:03.403Z,68.13
2023-04-18T19:34:03.427Z,68.24
2023-04-18T19:35:03.612Z,68.75
2023-04-18T19:36:03.586Z,68.78
2023-04-18T19:37:06.399Z,68.88
2023-04-18T19:38:03.748Z,69.09
2023-04-18T19:39:03.860Z,68.57
2023-04-18T19:40:03.965Z,69.40
2023-04-18T19:41:04.006Z,68.88
2023-04-18T19:42:04.098Z,68.78
2023-04-18T19:43:04.184Z,69.02
2023-04-18T19:44:04.255Z,69.02
2023-04-18T19:45:04.369Z,68.99
2023-04-18T19:46:04.487Z,69.32
2023-04-18T19:47:04.521Z,68.19
2023-04-18T19:48:04.612Z,68.81
2023-04-18T19:49:04.658Z,68.71
2023-04-18T19:50:04.751Z,68.91
2023-04-18T19:51:04.924Z,68.81
2023-04-18T19:52:04.923Z,68.81
2023-04-18T19:53:05.014Z,69.02
2023-04-18T19:54:05.148Z,68.95
2023-04-18T19:55:05.216Z,69.05
2023-04-18T19:56:05.296Z,69.46
2023-04-18T19:57:05.315Z,69.98
2023-04-18T19:58:05.452Z,69.77
2023-04-18T19:59:05.477Z,69.77
2023-04-18T20:00:05.538Z,69.67
2023-04-18T20:01:05.708Z,69.26
2023-04-18T20:02:06.519Z,69.77
2023-04-18T20:03:05.924Z,69.77
2023-04-18T20:04:05.980Z,69.87
2023-04-18T20:05:06.168Z,70.42
2023-04-18T20:06:06.045Z,70.73
2023-04-18T20:07:07.154Z,70.62
2023-04-18T20:08:06.206Z,70.94
2023-04-18T20:09:06.246Z,70.94
2023-04-18T20:10:06.292Z,71.24
2023-04-18T20:11:06.397Z,71.45
2023-04-18T20:12:06.494Z,71.79
2023-04-18T20:13:06.596Z,71.79
2023-04-18T20:14:06.663Z,71.69
2023-04-18T20:15:06.825Z,72.00
2023-04-18T20:16:06.834Z,72.00
2023-04-18T20:17:06.967Z,72.09
2023-04-18T20:18:07.075Z,72.20
2023-04-18T20:19:07.159Z,72.51
2023-04-18T20:20:07.180Z,72.41
2023-04-18T20:21:07.267Z,72.72
2023-04-18T20:22:07.951Z,72.81
2023-04-18T20:23:07.421Z,73.47
2023-04-18T20:24:07.963Z,73.13
2023-04-18T20:25:07.624Z,73.36
2023-04-18T20:26:07.671Z,73.57
2023-04-18T20:27:07.807Z,73.88
2023-04-18T20:28:07.835Z,73.78
2023-04-18T20:29:08.919Z,73.36
2023-04-18T20:30:08.011Z,73.88
2023-04-18T20:31:08.168Z,73.47
2023-04-18T20:32:08.233Z,73.57
2023-04-18T20:33:08.307Z,73.57
2023-04-18T20:34:08.420Z,73.78
2023-04-18T20:35:08.427Z,73.98
2023-04-18T20:36:08.529Z,73.78
2023-04-18T20:37:08.611Z,73.98
2023-04-18T20:38:08.697Z,73.88
2023-04-18T20:39:08.853Z,74.12
2023-04-18T20:40:08.939Z,74.12
2023-04-18T20:41:08.941Z,74.22
2023-04-18T20:42:09.008Z,74.53
2023-04-18T20:43:09.136Z,74.53
2023-04-18T20:44:09.298Z,74.53
2023-04-18T20:45:09.472Z,74.84
2023-04-18T20:46:09.361Z,74.84
2023-04-18T20:47:09.486Z,74.53
2023-04-18T20:48:09.598Z,74.95
2023-04-18T20:49:09.614Z,75.05
2023-04-18T20:50:10.726Z,75.05
2023-04-18T20:51:09.808Z,75.15
2023-04-18T20:52:09.903Z,75.39
2023-04-18T20:53:09.909Z,75.49
2023-04-18T20:54:10.058Z,75.81
2023-04-18T20:55:10.183Z,76.01
2023-04-18T20:56:10.202Z,76.21
2023-04-18T20:57:10.301Z,76.01
2023-04-18T20:58:11.365Z,76.11
2023-04-18T20:59:10.504Z,76.21
2023-04-18T21:00:10.564Z,76.32
2023-04-18T21:01:10.649Z,76.25
2023-04-18T21:02:10.743Z,76.46
2023-04-18T21:03:10.844Z,76.46
2023-04-18T21:04:11.035Z,76.66
2023-04-18T21:05:10.944Z,76.97
2023-04-18T21:06:11.042Z,76.87
2023-04-18T21:07:11.099Z,76.66
2023-04-18T21:08:11.112Z,76.87
2023-04-18T21:09:11.209Z,77.18
2023-04-18T21:10:11.303Z,77.11
2023-04-18T21:11:11.359Z,77.38
2023-04-18T21:12:11.498Z,77.48
2023-04-18T21:13:11.513Z,77.80
2023-04-18T21:14:11.575Z,77.83
2023-04-18T21:15:11.639Z,78.04
2023-04-18T21:16:11.743Z,78.24
2023-04-18T21:17:11.858Z,78.14
2023-04-18T21:18:11.951Z,78.24
2023-04-18T21:19:11.981Z,78.24
2023-04-18T21:20:12.041Z,78.66
2023-04-18T21:21:12.137Z,78.76
2023-04-18T21:22:12.237Z,78.97
2023-04-18T21:23:12.373Z,78.86
2023-04-18T21:24:12.592Z,79.00
2023-04-18T21:25:12.483Z,79.07
2023-04-18T21:26:12.596Z,79.21
2023-04-18T21:27:12.670Z,79.31
2023-04-18T21:28:12.811Z,79.41
2023-04-18T21:29:12.815Z,79.72
2023-04-18T21:30:12.892Z,79.62
2023-04-18T21:31:13.027Z,79.93
2023-04-18T21:32:13.055Z,80.14
2023-04-18T21:33:13.139Z,80.34
2023-04-18T21:34:13.360Z,80.34
2023-04-18T21:35:13.282Z,80.58
2023-04-18T21:36:13.371Z,80.69
2023-04-18T21:37:13.468Z,80.86
2023-04-18T21:38:13.578Z,80.90
2023-04-18T21:39:13.650Z,81.10
2023-04-18T21:40:13.703Z,81.10
2023-04-18T21:41:13.807Z,81.21
2023-04-18T21:42:13.900Z,81.21
2023-04-18T21:43:14.019Z,81.41
2023-04-18T21:44:14.316Z,81.62
2023-04-18T21:45:14.148Z,81.62
2023-04-18T21:46:14.278Z,81.72
2023-04-18T21:47:14.351Z,81.82
2023-04-18T21:48:14.417Z,82.03
2023-04-18T21:49:14.546Z,82.14
2023-04-18T21:50:14.601Z,82.17
2023-04-18T21:51:14.660Z,82.17
2023-04-18T21:52:14.799Z,82.28
2023-04-18T21:53:14.825Z,82.28
2023-04-18T21:54:15.282Z,82.69
2023-04-18T21:55:15.033Z,82.59
2023-04-18T21:56:15.149Z,82.38
2023-04-18T21:57:15.184Z,82.48
2023-04-18T21:58:15.287Z,82.69
2023-04-18T21:59:15.401Z,82.69
2023-04-18T22:00:15.466Z,82.38
2023-04-18T22:01:15.564Z,82.38
2023-04-18T22:02:15.700Z,81.96
2023-04-18T22:03:15.871Z,82.17
2023-04-18T22:04:16.137Z,82.17
2023-04-18T22:05:15.892Z,82.10
2023-04-18T22:06:15.952Z,82.21
2023-04-18T22:07:16.036Z,82.42
2023-04-18T22:08:16.172Z,82.21
2023-04-18T22:09:16.239Z,82.21
2023-04-18T22:10:16.326Z,82.42
2023-04-18T22:11:16.434Z,82.31
2023-04-18T22:12:16.548Z,81.90
2023-04-18T22:13:16.577Z,82.10
2023-04-18T22:14:16.784Z,81.90
2023-04-18T22:15:16.773Z,82.10
2023-04-18T22:16:16.871Z,82.31
2023-04-18T22:17:16.919Z,82.21
2023-04-18T22:18:17.024Z,81.80
2023-04-18T22:19:17.059Z,81.90
2023-04-18T22:20:17.154Z,81.59
2023-04-18T22:21:17.272Z,81.70
2023-04-18T22:22:17.356Z,81.90
2023-04-18T22:23:17.377Z,81.52
2023-04-18T22:24:17.589Z,81.32
2023-04-18T22:25:17.585Z,80.90
2023-04-18T22:26:17.653Z,81.21
2023-04-18T22:27:17.779Z,81.52
2023-04-18T22:28:17.911Z,81.11
2023-04-18T22:29:17.918Z,81.21
2023-04-18T22:30:17.977Z,81.42
2023-04-18T22:31:18.215Z,80.70
2023-04-18T22:32:18.228Z,80.49
2023-04-18T22:33:18.268Z,80.18
2023-04-18T22:34:18.314Z,79.56
2023-04-18T22:35:18.409Z,79.77
2023-04-18T22:36:18.516Z,80.11
2023-04-18T22:37:18.591Z,80.29
2023-04-18T22:38:18.616Z,79.29
2023-04-18T22:39:19.711Z,79.49
2023-04-18T22:40:18.757Z,79.80
2023-04-18T22:41:18.847Z,79.60
2023-04-18T22:42:19.067Z,78.98
2023-04-18T22:43:20.013Z,78.56
2023-04-18T22:44:19.066Z,78.67
2023-04-18T22:45:19.194Z,78.46
2023-04-18T22:46:19.266Z,78.67
2023-04-18T22:47:19.355Z,78.15
2023-04-18T22:48:20.417Z,78.15
2023-04-18T22:49:19.496Z,77.94
2023-04-18T22:50:19.602Z,77.84
2023-04-18T22:51:19.659Z,77.94
2023-04-18T22:52:19.725Z,78.05
2023-04-18T22:53:20.830Z,77.74
2023-04-18T22:54:19.890Z,77.12
2023-04-18T22:55:19.968Z,77.12
2023-04-18T22:56:20.059Z,76.50
2023-04-18T22:57:20.100Z,76.91
2023-04-18T22:58:20.218Z,76.91
2023-04-18T22:59:20.295Z,76.53
2023-04-18T23:00:20.381Z,76.29
2023-04-18T23:01:20.518Z,75.26
2023-04-18T23:02:20.586Z,75.46
2023-04-18T23:03:20.789Z,75.46
2023-04-18T23:04:20.819Z,76.39
2023-04-18T23:05:20.719Z,75.78
2023-04-18T23:06:20.864Z,75.46
2023-04-18T23:07:20.879Z,75.15
2023-04-18T23:08:20.964Z,74.95
2023-04-18T23:09:21.057Z,74.74
2023-04-18T23:10:21.172Z,74.95
2023-04-18T23:11:21.280Z,74.22
2023-04-18T23:12:21.286Z,75.05
2023-04-18T23:13:21.382Z,75.36
2023-04-18T23:14:21.499Z,74.95
2023-04-18T23:15:21.574Z,75.05
2023-04-18T23:16:21.724Z,74.84
2023-04-18T23:17:21.814Z,74.12
2023-04-18T23:18:21.800Z,74.43
2023-04-18T23:19:21.877Z,74.12
2023-04-18T23:20:21.970Z,73.91
2023-04-18T23:21:22.069Z,73.81
2023-04-18T23:22:22.196Z,74.26
2023-04-18T23:23:22.204Z,74.12
2023-04-18T23:24:22.297Z,73.91
2023-04-18T23:25:22.372Z,73.29
2023-04-18T23:26:22.462Z,72.88
2023-04-18T23:27:22.526Z,73.08
2023-04-18T23:28:22.725Z,72.36
2023-04-18T23:29:22.698Z,72.57
2023-04-18T23:30:22.879Z,72.78
2023-04-18T23:31:22.928Z,72.78
2023-04-18T23:32:23.004Z,72.57
2023-04-18T23:33:23.095Z,71.95
2023-04-18T23:34:23.104Z,71.74
2023-04-18T23:35:23.199Z,72.16
2023-04-18T23:36:23.287Z,71.33
2023-04-18T23:37:24.381Z,72.16
2023-04-18T23:38:23.509Z,71.74
2023-04-18T23:39:23.530Z,71.33
2023-04-18T23:40:24.611Z,71.22
2023-04-18T23:41:24.704Z,71.53
2023-04-18T23:42:23.815Z,70.81
2023-04-18T23:43:23.886Z,71.12
2023-04-18T23:44:23.923Z,70.92
2023-04-18T23:45:23.994Z,71.74
2023-04-18T23:46:24.144Z,71.22
2023-04-18T23:47:24.172Z,70.71
2023-04-18T23:48:24.541Z,70.57
2023-04-18T23:49:24.336Z,71.12
2023-04-18T23:50:24.434Z,70.47
2023-04-18T23:51:25.484Z,70.26
2023-04-18T23:52:24.555Z,70.09
2023-04-18T23:53:24.686Z,69.64
2023-04-18T23:54:24.761Z,70.06
2023-04-18T23:55:24.869Z,69.06
2023-04-18T23:56:25.851Z,69.23
2023-04-18T23:57:24.938Z,69.54
2023-04-18T23:58:25.019Z,69.43
2023-04-18T23:59:25.124Z,69.33
